createdAt,value
2018-05-07T00:00:31.114Z,17.15
2018-05-07T00:02:24.023Z,17.12
2018-05-07T00:03:24.044Z,17.08
2018-05-07T00:05:16.972Z,17.04
2018-05-07T00:06:17.034Z,17.00
2018-05-07T00:08:09.902Z,16.93
2018-05-07T00:09:09.939Z,16.89
2018-05-07T00:11:02.813Z,17.07
2018-05-07T00:12:02.840Z,17.04
2018-05-07T00:13:55.796Z,17.00
2018-05-07T00:14:55.768Z,16.93
2018-05-07T00:16:48.675Z,16.93
2018-05-07T00:17:48.699Z,16.97
2018-05-07T00:19:41.633Z,16.98
2018-05-07T00:20:41.682Z,17.01
2018-05-07T00:22:34.549Z,17.00
2018-05-07T00:23:34.556Z,16.91
2018-05-07T00:25:27.481Z,16.97
2018-05-07T00:26:27.486Z,16.86
2018-05-07T00:28:20.442Z,16.86
2018-05-07T00:29:20.416Z,16.79
2018-05-07T00:31:13.324Z,16.76
2018-05-07T00:32:13.345Z,16.66
2018-05-07T00:34:06.270Z,16.60
2018-05-07T00:35:06.276Z,16.68
2018-05-07T00:36:59.181Z,16.64
2018-05-07T00:37:59.202Z,16.60
2018-05-07T00:39:52.134Z,16.53
2018-05-07T00:40:52.135Z,16.49
2018-05-07T00:42:45.042Z,16.41
2018-05-07T00:43:45.067Z,16.41
2018-05-07T00:45:37.991Z,16.34
2018-05-07T00:46:37.995Z,16.28
2018-05-07T00:48:30.915Z,16.35
2018-05-07T00:49:30.920Z,16.34
2018-05-07T00:51:23.827Z,16.24
2018-05-07T00:52:23.848Z,16.23
2018-05-07T00:54:16.776Z,16.15
2018-05-07T00:55:16.780Z,16.21
2018-05-07T00:57:09.832Z,16.08
2018-05-07T00:58:09.856Z,16.09
2018-05-07T01:00:02.782Z,16.02
2018-05-07T01:01:02.781Z,15.93
2018-05-07T01:02:55.686Z,15.92
2018-05-07T01:03:55.707Z,15.89
2018-05-07T01:05:48.635Z,15.72
2018-05-07T01:06:48.639Z,15.84
2018-05-07T01:08:41.565Z,15.75
2018-05-07T01:09:41.566Z,15.78
2018-05-07T01:11:34.472Z,15.83
2018-05-07T01:12:34.494Z,15.71
2018-05-07T01:14:27.421Z,15.74
2018-05-07T01:15:27.420Z,15.74
2018-05-07T01:17:20.332Z,15.78
2018-05-07T01:18:20.352Z,15.80
2018-05-07T01:20:13.279Z,15.75
2018-05-07T01:21:13.283Z,15.65
2018-05-07T01:23:06.419Z,15.67
2018-05-07T01:24:06.440Z,15.68
2018-05-07T01:25:59.364Z,15.64
2018-05-07T01:26:59.367Z,15.68
2018-05-07T01:28:52.308Z,15.71
2018-05-07T01:29:52.294Z,15.69
2018-05-07T01:31:45.201Z,15.65
2018-05-07T01:32:45.223Z,15.68
2018-05-07T01:34:38.153Z,15.65
2018-05-07T01:35:38.154Z,15.57
2018-05-07T01:37:31.062Z,15.43
2018-05-07T01:38:31.083Z,15.54
2018-05-07T01:40:24.007Z,15.59
2018-05-07T01:41:24.009Z,15.56
2018-05-07T01:43:16.917Z,15.39
2018-05-07T01:44:16.938Z,15.49
2018-05-07T01:46:09.865Z,15.35
2018-05-07T01:47:09.867Z,15.39
2018-05-07T01:49:02.794Z,15.38
2018-05-07T01:50:02.795Z,15.34
2018-05-07T01:51:55.697Z,15.25
2018-05-07T01:52:55.717Z,15.28
2018-05-07T01:54:48.644Z,15.25
2018-05-07T01:55:48.646Z,15.25
2018-05-07T01:57:42.059Z,15.23
2018-05-07T01:58:42.081Z,15.19
2018-05-07T02:00:34.998Z,15.25
2018-05-07T02:01:35.000Z,15.25
2018-05-07T02:03:27.907Z,15.28
2018-05-07T02:04:27.930Z,15.21
2018-05-07T02:06:21.347Z,15.14
2018-05-07T02:07:21.349Z,15.13
2018-05-07T02:09:14.285Z,15.16
2018-05-07T02:10:14.275Z,15.09
2018-05-07T02:12:07.178Z,15.13
2018-05-07T02:13:07.198Z,15.11
2018-05-07T02:15:00.120Z,15.07
2018-05-07T02:16:00.123Z,15.01
2018-05-07T02:17:53.025Z,14.94
2018-05-07T02:18:53.045Z,14.96
2018-05-07T02:20:45.970Z,15.02
2018-05-07T02:21:45.973Z,14.92
2018-05-07T02:23:38.879Z,14.96
2018-05-07T02:24:38.899Z,14.99
2018-05-07T02:26:31.822Z,14.89
2018-05-07T02:27:31.827Z,14.84
2018-05-07T02:29:24.767Z,14.68
2018-05-07T02:30:24.748Z,14.70
2018-05-07T02:32:17.651Z,14.65
2018-05-07T02:33:17.678Z,14.65
2018-05-07T02:35:10.594Z,14.73
2018-05-07T02:36:10.598Z,14.75
2018-05-07T02:38:03.501Z,14.73
2018-05-07T02:39:03.596Z,14.73
2018-05-07T02:40:56.445Z,14.65
2018-05-07T02:41:56.448Z,14.58
2018-05-07T02:43:49.352Z,14.62
2018-05-07T02:44:49.371Z,14.57
2018-05-07T02:46:42.303Z,14.62
2018-05-07T02:47:42.300Z,14.55
2018-05-07T02:49:35.223Z,14.65
2018-05-07T02:50:35.219Z,14.55
2018-05-07T02:52:28.291Z,14.55
2018-05-07T02:53:28.313Z,14.54
2018-05-07T02:55:21.234Z,14.61
2018-05-07T02:56:21.236Z,14.52
2018-05-07T02:58:14.298Z,14.60
2018-05-07T02:59:14.322Z,14.58
2018-05-07T03:01:07.244Z,14.60
2018-05-07T03:02:07.246Z,14.54
2018-05-07T03:04:00.146Z,14.57
2018-05-07T03:05:00.168Z,14.57
2018-05-07T03:06:53.093Z,14.50
2018-05-07T03:07:53.092Z,14.50
2018-05-07T03:09:46.037Z,14.43
2018-05-07T03:10:46.022Z,14.43
2018-05-07T03:12:38.930Z,14.43
2018-05-07T03:13:38.950Z,14.40
2018-05-07T03:15:31.870Z,14.33
2018-05-07T03:16:31.874Z,14.35
2018-05-07T03:18:24.774Z,14.33
2018-05-07T03:19:24.795Z,14.24
2018-05-07T03:21:17.717Z,14.18
2018-05-07T03:22:17.722Z,14.24
2018-05-07T03:24:10.623Z,14.09
2018-05-07T03:25:10.643Z,14.12
2018-05-07T03:27:03.565Z,14.09
2018-05-07T03:28:03.569Z,14.02
2018-05-07T03:29:56.477Z,14.10
2018-05-07T03:30:56.493Z,13.99
2018-05-07T03:32:49.416Z,14.02
2018-05-07T03:33:49.415Z,13.97
2018-05-07T03:35:42.337Z,13.89
2018-05-07T03:36:42.337Z,13.95
2018-05-07T03:38:35.248Z,13.91
2018-05-07T03:39:35.276Z,13.88
2018-05-07T03:41:28.190Z,13.95
2018-05-07T03:42:28.195Z,13.95
2018-05-07T03:44:21.096Z,13.91
2018-05-07T03:45:21.114Z,13.87
2018-05-07T03:47:14.040Z,13.87
2018-05-07T03:48:14.045Z,13.77
2018-05-07T03:50:06.947Z,13.81
2018-05-07T03:51:06.969Z,13.78
2018-05-07T03:52:59.887Z,13.73
2018-05-07T03:53:59.888Z,13.73
2018-05-07T03:55:52.814Z,13.73
2018-05-07T03:56:52.816Z,13.70
2018-05-07T03:58:45.718Z,13.78
2018-05-07T03:59:45.825Z,13.67
2018-05-07T04:01:38.662Z,13.73
2018-05-07T04:02:38.663Z,13.75
2018-05-07T04:04:31.576Z,13.78
2018-05-07T04:05:31.587Z,13.71
2018-05-07T04:07:25.564Z,13.82
2018-05-07T04:08:25.508Z,13.73
2018-05-07T04:10:18.408Z,13.77
2018-05-07T04:11:18.428Z,13.73
2018-05-07T04:13:11.452Z,14.00
2018-05-07T04:14:11.353Z,14.15
2018-05-07T04:16:04.556Z,14.39
2018-05-07T04:17:04.561Z,14.65
2018-05-07T04:18:57.423Z,15.10
2018-05-07T04:19:57.442Z,15.19
2018-05-07T04:21:50.381Z,15.80
2018-05-07T04:22:50.381Z,16.11
2018-05-07T04:24:43.285Z,16.81
2018-05-07T04:25:43.307Z,17.14
2018-05-07T04:27:36.231Z,17.75
2018-05-07T04:28:36.232Z,18.14
2018-05-07T04:30:29.140Z,18.66
2018-05-07T04:31:29.162Z,19.00
2018-05-07T04:33:22.090Z,19.58
2018-05-07T04:34:22.095Z,19.84
2018-05-07T04:36:15.018Z,20.36
2018-05-07T04:37:15.023Z,20.67
2018-05-07T04:39:07.933Z,21.16
2018-05-07T04:40:07.958Z,21.29
2018-05-07T04:42:00.898Z,21.58
2018-05-07T04:43:00.903Z,21.83
2018-05-07T04:44:54.305Z,21.98
2018-05-07T04:45:54.333Z,22.22
2018-05-07T04:47:47.263Z,22.46
2018-05-07T04:48:47.275Z,22.61
2018-05-07T04:50:40.198Z,22.65
2018-05-07T04:51:40.202Z,22.68
2018-05-07T04:53:33.133Z,22.68
2018-05-07T04:54:33.140Z,22.62
2018-05-07T04:56:26.075Z,21.83
2018-05-07T04:57:26.084Z,21.27
2018-05-07T04:59:19.001Z,20.73
2018-05-07T05:00:19.027Z,20.54
2018-05-07T05:02:11.954Z,20.24
2018-05-07T05:03:11.962Z,20.10
2018-05-07T05:05:04.876Z,19.71
2018-05-07T05:06:04.905Z,19.51
2018-05-07T05:07:57.827Z,19.23
2018-05-07T05:08:57.835Z,19.13
2018-05-07T05:10:50.744Z,18.84
2018-05-07T05:11:50.767Z,18.67
2018-05-07T05:13:43.693Z,18.47
2018-05-07T05:14:43.699Z,18.32
2018-05-07T05:16:36.628Z,18.26
2018-05-07T05:17:36.632Z,18.23
2018-05-07T05:19:29.543Z,18.08
2018-05-07T05:20:29.570Z,18.03
2018-05-07T05:22:22.499Z,17.96
2018-05-07T05:23:22.503Z,17.84
2018-05-07T05:25:15.413Z,17.78
2018-05-07T05:26:15.436Z,17.77
2018-05-07T05:28:08.365Z,17.78
2018-05-07T05:29:08.373Z,17.74
2018-05-07T05:31:01.287Z,17.89
2018-05-07T05:32:01.307Z,17.93
2018-05-07T05:33:54.252Z,18.05
2018-05-07T05:34:54.255Z,18.15
2018-05-07T05:36:47.173Z,18.45
2018-05-07T05:37:47.176Z,18.63
2018-05-07T05:39:40.086Z,19.10
2018-05-07T05:40:40.110Z,19.28
2018-05-07T05:42:33.041Z,19.36
2018-05-07T05:43:33.126Z,19.31
2018-05-07T05:45:25.955Z,18.98
2018-05-07T05:46:25.980Z,18.91
2018-05-07T05:48:18.911Z,18.70
2018-05-07T05:49:18.915Z,18.55
2018-05-07T05:51:11.829Z,18.36
2018-05-07T05:52:11.855Z,18.27
2018-05-07T05:54:04.782Z,18.18
2018-05-07T05:55:04.794Z,18.27
2018-05-07T05:56:57.718Z,18.52
2018-05-07T05:57:57.725Z,18.78
2018-05-07T05:59:50.632Z,19.19
2018-05-07T06:00:50.660Z,19.48
2018-05-07T06:02:43.596Z,20.18
2018-05-07T06:03:43.685Z,20.41
2018-05-07T06:05:36.517Z,20.73
2018-05-07T06:06:36.546Z,20.87
2018-05-07T06:08:29.492Z,21.29
2018-05-07T06:09:29.491Z,21.25
2018-05-07T06:11:22.409Z,21.62
2018-05-07T06:12:22.436Z,21.72
2018-05-07T06:14:15.379Z,22.02
2018-05-07T06:15:15.389Z,22.00
2018-05-07T06:17:08.364Z,22.39
2018-05-07T06:18:08.376Z,22.46
2018-05-07T06:20:01.301Z,22.88
2018-05-07T06:21:01.326Z,23.19
2018-05-07T06:22:54.278Z,23.07
2018-05-07T06:23:54.285Z,22.95
2018-05-07T06:25:47.215Z,23.46
2018-05-07T06:26:47.240Z,23.70
2018-05-07T06:28:40.191Z,23.72
2018-05-07T06:29:40.203Z,23.98
2018-05-07T06:31:33.127Z,23.73
2018-05-07T06:32:33.159Z,23.51
2018-05-07T06:34:26.126Z,23.65
2018-05-07T06:35:26.115Z,23.68
2018-05-07T06:37:19.067Z,23.87
2018-05-07T06:38:19.074Z,24.12
2018-05-07T06:40:12.011Z,24.27
2018-05-07T06:41:12.035Z,24.46
2018-05-07T06:43:04.982Z,24.37
2018-05-07T06:44:04.995Z,24.05
2018-05-07T06:45:57.943Z,23.85
2018-05-07T06:46:57.956Z,23.93
2018-05-07T06:48:50.912Z,23.87
2018-05-07T06:49:50.920Z,23.95
2018-05-07T06:51:43.847Z,23.94
2018-05-07T06:52:43.881Z,24.00
2018-05-07T06:54:36.834Z,23.90
2018-05-07T06:55:36.843Z,23.93
2018-05-07T06:57:29.798Z,24.15
2018-05-07T06:58:29.815Z,24.24
2018-05-07T07:00:22.745Z,24.55
2018-05-07T07:01:22.778Z,24.52
2018-05-07T07:03:15.733Z,24.35
2018-05-07T07:04:23.365Z,24.34
2018-05-07T07:06:09.237Z,24.24
2018-05-07T07:07:09.206Z,24.24
2018-05-07T07:09:02.162Z,24.24
2018-05-07T07:10:02.182Z,24.35
2018-05-07T07:11:55.112Z,24.10
2018-05-07T07:12:55.140Z,24.06
2018-05-07T07:14:48.090Z,23.94
2018-05-07T07:15:48.100Z,23.70
2018-05-07T07:17:41.047Z,23.46
2018-05-07T07:18:41.057Z,23.36
2018-05-07T07:20:33.986Z,23.32
2018-05-07T07:21:34.013Z,23.07
2018-05-07T07:23:26.956Z,23.07
2018-05-07T07:24:26.969Z,22.92
2018-05-07T07:26:19.893Z,22.83
2018-05-07T07:27:19.923Z,22.75
2018-05-07T07:29:12.863Z,22.57
2018-05-07T07:30:12.873Z,22.42
2018-05-07T07:32:05.795Z,22.37
2018-05-07T07:33:05.823Z,22.45
2018-05-07T07:34:58.764Z,22.45
2018-05-07T07:35:58.771Z,22.58
2018-05-07T07:37:51.720Z,22.68
2018-05-07T07:38:51.722Z,22.72
2018-05-07T07:40:44.642Z,22.58
2018-05-07T07:41:44.671Z,22.70
2018-05-07T07:43:37.619Z,22.55
2018-05-07T07:44:37.619Z,22.62
2018-05-07T07:46:30.545Z,22.31
2018-05-07T07:47:30.572Z,22.25
2018-05-07T07:49:23.512Z,22.28
2018-05-07T07:50:23.521Z,22.27
2018-05-07T07:52:16.443Z,22.37
2018-05-07T07:53:16.474Z,22.43
2018-05-07T07:55:09.419Z,22.58
2018-05-07T07:56:09.421Z,22.65
2018-05-07T07:58:02.366Z,22.65
2018-05-07T07:59:02.370Z,22.60
2018-05-07T08:00:55.289Z,22.65
2018-05-07T08:01:55.317Z,22.61
2018-05-07T08:03:48.257Z,22.58
2018-05-07T08:04:48.269Z,22.61
2018-05-07T08:06:41.188Z,22.68
2018-05-07T08:07:41.215Z,22.68
2018-05-07T08:09:34.164Z,22.67
2018-05-07T08:10:34.170Z,22.83
2018-05-07T08:12:27.141Z,22.94
2018-05-07T08:13:27.126Z,22.91
2018-05-07T08:15:20.070Z,22.92
2018-05-07T08:16:20.080Z,22.97
2018-05-07T08:18:13.018Z,22.91
2018-05-07T08:19:13.024Z,22.90
2018-05-07T08:21:05.948Z,22.91
2018-05-07T08:22:05.973Z,22.92
2018-05-07T08:23:58.912Z,22.88
2018-05-07T08:24:58.920Z,23.00
2018-05-07T08:26:51.843Z,22.95
2018-05-07T08:27:51.871Z,23.05
2018-05-07T08:29:44.809Z,22.91
2018-05-07T08:30:44.818Z,22.90
2018-05-07T08:32:37.740Z,23.07
2018-05-07T08:33:37.765Z,23.12
2018-05-07T08:35:30.703Z,23.02
2018-05-07T08:36:30.770Z,23.22
2018-05-07T08:38:23.651Z,23.17
2018-05-07T08:39:23.658Z,22.98
2018-05-07T08:41:16.581Z,22.98
2018-05-07T08:42:16.662Z,23.07
2018-05-07T08:44:09.544Z,23.20
2018-05-07T08:45:09.553Z,23.25
2018-05-07T08:47:02.469Z,23.27
2018-05-07T08:48:02.499Z,23.36
2018-05-07T08:49:55.437Z,23.39
2018-05-07T08:50:55.544Z,23.38
2018-05-07T08:52:48.389Z,23.32
2018-05-07T08:53:48.395Z,23.23
2018-05-07T08:55:41.343Z,23.35
2018-05-07T08:56:41.348Z,23.53
2018-05-07T08:58:34.284Z,23.69
2018-05-07T08:59:34.293Z,23.72
2018-05-07T09:01:27.218Z,23.73
2018-05-07T09:02:27.242Z,23.65
2018-05-07T09:04:20.190Z,23.65
2018-05-07T09:05:20.197Z,23.61
2018-05-07T09:07:13.125Z,23.54
2018-05-07T09:08:13.151Z,23.55
2018-05-07T09:10:06.099Z,23.53
2018-05-07T09:11:06.107Z,23.63
2018-05-07T09:12:59.031Z,23.70
2018-05-07T09:13:59.058Z,23.76
2018-05-07T09:15:52.007Z,23.84
2018-05-07T09:16:52.013Z,23.93
2018-05-07T09:18:44.959Z,24.12
2018-05-07T09:19:44.968Z,24.02
2018-05-07T09:21:37.893Z,24.00
2018-05-07T09:22:37.922Z,24.00
2018-05-07T09:24:30.870Z,24.08
2018-05-07T09:25:30.878Z,24.03
2018-05-07T09:27:23.804Z,24.05
2018-05-07T09:28:23.833Z,23.98
2018-05-07T09:30:16.771Z,24.09
2018-05-07T09:31:16.783Z,24.13
2018-05-07T09:33:09.708Z,24.02
2018-05-07T09:34:09.730Z,24.10
2018-05-07T09:36:02.678Z,23.90
2018-05-07T09:37:02.703Z,23.84
2018-05-07T09:38:55.626Z,23.90
2018-05-07T09:39:55.637Z,23.87
2018-05-07T09:41:48.562Z,23.91
2018-05-07T09:42:48.590Z,23.97
2018-05-07T09:44:41.538Z,24.00
2018-05-07T09:45:41.539Z,24.13
2018-05-07T09:47:34.466Z,24.21
2018-05-07T09:48:34.494Z,24.24
2018-05-07T09:50:27.441Z,24.13
2018-05-07T09:51:27.450Z,24.25
2018-05-07T09:53:20.379Z,24.30
2018-05-07T09:54:20.405Z,24.32
2018-05-07T09:56:13.354Z,24.30
2018-05-07T09:57:13.363Z,24.34
2018-05-07T09:59:06.312Z,24.32
2018-05-07T10:00:06.325Z,24.37
2018-05-07T10:01:59.247Z,24.37
2018-05-07T10:02:59.271Z,24.45
2018-05-07T10:04:52.220Z,24.47
2018-05-07T10:05:52.225Z,24.50
2018-05-07T10:07:45.653Z,24.55
2018-05-07T10:08:45.681Z,24.58
2018-05-07T10:10:38.629Z,24.61
2018-05-07T10:11:38.639Z,24.52
2018-05-07T10:13:31.558Z,24.47
2018-05-07T10:14:31.587Z,24.45
2018-05-07T10:16:24.533Z,24.37
2018-05-07T10:17:24.542Z,24.43
2018-05-07T10:19:17.489Z,24.42
2018-05-07T10:20:17.495Z,24.49
2018-05-07T10:22:10.428Z,24.67
2018-05-07T10:23:10.454Z,24.62
2018-05-07T10:25:03.393Z,24.77
2018-05-07T10:26:03.401Z,24.77
2018-05-07T10:27:56.329Z,24.93
2018-05-07T10:28:56.356Z,24.85
2018-05-07T10:30:49.307Z,24.98
2018-05-07T10:31:49.314Z,25.03
2018-05-07T10:33:42.238Z,25.03
2018-05-07T10:34:42.265Z,25.10
2018-05-07T10:36:35.214Z,25.02
2018-05-07T10:37:35.222Z,25.21
2018-05-07T10:39:28.171Z,25.06
2018-05-07T10:40:28.175Z,24.90
2018-05-07T10:42:21.101Z,24.81
2018-05-07T10:43:21.153Z,24.76
2018-05-07T10:45:14.077Z,24.68
2018-05-07T10:46:14.085Z,24.60
2018-05-07T10:48:07.041Z,24.68
2018-05-07T10:49:07.105Z,24.67
2018-05-07T10:50:59.986Z,24.68
2018-05-07T10:51:59.998Z,24.80
2018-05-07T10:53:52.921Z,24.68
2018-05-07T10:54:52.951Z,24.58
2018-05-07T10:56:45.901Z,24.73
2018-05-07T10:57:45.907Z,24.76
2018-05-07T10:59:38.853Z,24.76
2018-05-07T11:00:38.866Z,24.73
2018-05-07T11:02:31.789Z,24.85
2018-05-07T11:04:44.744Z,24.98
2018-05-07T11:05:44.754Z,25.05
2018-05-07T11:07:37.680Z,25.14
2018-05-07T11:08:37.710Z,25.03
2018-05-07T11:10:30.650Z,24.99
2018-05-07T11:11:30.664Z,25.03
2018-05-07T11:13:23.610Z,25.02
2018-05-07T11:14:23.644Z,25.15
2018-05-07T11:16:16.563Z,25.17
2018-05-07T11:17:16.570Z,25.14
2018-05-07T11:19:09.494Z,25.20
2018-05-07T11:20:09.523Z,25.28
2018-05-07T11:22:02.470Z,25.27
2018-05-07T11:23:02.481Z,25.23
2018-05-07T11:24:55.425Z,25.28
2018-05-07T11:25:55.434Z,25.30
2018-05-07T11:27:48.356Z,25.36
2018-05-07T11:28:48.395Z,25.46
2018-05-07T11:30:41.327Z,25.35
2018-05-07T11:31:41.339Z,25.42
2018-05-07T11:33:35.267Z,25.52
2018-05-07T11:34:35.291Z,25.60
2018-05-07T11:36:28.243Z,25.72
2018-05-07T11:37:28.253Z,25.70
2018-05-07T11:39:21.176Z,25.65
2018-05-07T11:40:21.206Z,25.70
2018-05-07T11:42:14.158Z,25.62
2018-05-07T11:43:14.166Z,25.52
2018-05-07T11:45:07.187Z,25.30
2018-05-07T11:46:07.195Z,25.28
2018-05-07T11:48:00.223Z,25.30
2018-05-07T11:49:00.260Z,25.24
2018-05-07T11:50:53.299Z,25.27
2018-05-07T11:51:53.310Z,25.39
2018-05-07T11:53:46.358Z,25.36
2018-05-07T11:54:46.420Z,25.39
2018-05-07T11:56:39.409Z,25.51
2018-05-07T11:57:39.421Z,25.62
2018-05-07T11:59:32.447Z,25.67
2018-05-07T12:00:32.478Z,25.73
2018-05-07T12:02:25.545Z,25.88
2018-05-07T12:03:25.537Z,25.99
2018-05-07T12:05:18.582Z,26.01
2018-05-07T12:06:18.594Z,26.02
2018-05-07T12:08:11.615Z,26.07
2018-05-07T12:09:11.651Z,26.07
2018-05-07T12:11:04.724Z,25.97
2018-05-07T12:12:04.714Z,26.12
2018-05-07T12:13:57.634Z,26.10
2018-05-07T12:14:57.664Z,26.21
2018-05-07T12:16:50.703Z,26.32
2018-05-07T12:17:50.714Z,26.28
2018-05-07T12:19:43.738Z,26.10
2018-05-07T12:20:43.770Z,26.17
2018-05-07T12:22:36.719Z,26.25
2018-05-07T12:23:36.767Z,26.26
2018-05-07T12:25:29.767Z,26.43
2018-05-07T12:26:29.780Z,26.39
2018-05-07T12:28:22.816Z,26.45
2018-05-07T12:29:22.837Z,26.29
2018-05-07T12:31:15.974Z,26.25
2018-05-07T12:32:15.891Z,26.21
2018-05-07T12:34:08.921Z,26.25
2018-05-07T12:35:08.950Z,26.25
2018-05-07T12:37:01.992Z,26.44
2018-05-07T12:38:02.006Z,26.50
2018-05-07T12:39:55.032Z,26.58
2018-05-07T12:40:55.064Z,26.65
2018-05-07T12:42:48.105Z,26.66
2018-05-07T12:43:48.119Z,26.67
2018-05-07T12:45:41.163Z,26.75
2018-05-07T12:46:41.207Z,26.67
2018-05-07T12:48:34.200Z,26.73
2018-05-07T12:49:34.231Z,26.72
2018-05-07T12:51:27.275Z,26.63
2018-05-07T12:52:27.384Z,26.66
2018-05-07T12:54:20.313Z,26.48
2018-05-07T12:55:20.346Z,26.52
2018-05-07T12:57:13.289Z,26.57
2018-05-07T12:58:13.304Z,26.54
2018-05-07T13:00:06.223Z,26.43
2018-05-07T13:01:06.253Z,26.47
2018-05-07T13:02:59.203Z,26.55
2018-05-07T13:03:59.210Z,26.51
2018-05-07T13:05:52.173Z,26.76
2018-05-07T13:06:52.168Z,26.75
2018-05-07T13:08:45.091Z,26.88
2018-05-07T13:09:45.127Z,26.84
2018-05-07T13:11:38.154Z,26.88
2018-05-07T13:12:38.079Z,26.70
2018-05-07T13:14:31.005Z,26.77
2018-05-07T13:15:31.039Z,26.75
2018-05-07T13:17:23.980Z,26.66
2018-05-07T13:18:23.988Z,26.57
2018-05-07T13:20:16.913Z,26.67
2018-05-07T13:21:16.950Z,26.81
2018-05-07T13:23:09.887Z,26.84
2018-05-07T13:24:09.942Z,26.88
2018-05-07T13:26:02.925Z,26.84
2018-05-07T13:27:02.938Z,26.82
2018-05-07T13:28:55.966Z,26.87
2018-05-07T13:29:55.995Z,26.87
2018-05-07T13:31:49.038Z,26.84
2018-05-07T13:32:49.051Z,26.66
2018-05-07T13:34:42.081Z,26.75
2018-05-07T13:35:42.113Z,26.73
2018-05-07T13:37:35.150Z,26.82
2018-05-07T13:38:35.163Z,26.84
2018-05-07T13:40:28.198Z,26.91
2018-05-07T13:41:28.230Z,26.99
2018-05-07T13:43:21.780Z,26.99
2018-05-07T13:44:21.790Z,26.97
2018-05-07T13:46:15.650Z,27.14
2018-05-07T13:47:15.667Z,27.21
2018-05-07T13:49:08.693Z,27.25
2018-05-07T13:50:08.722Z,27.21
2018-05-07T13:52:01.763Z,27.32
2018-05-07T13:53:01.778Z,27.44
2018-05-07T13:54:54.804Z,27.41
2018-05-07T13:55:54.836Z,27.37
2018-05-07T13:57:47.875Z,27.51
2018-05-07T13:58:47.927Z,27.47
2018-05-07T14:00:40.914Z,27.44
2018-05-07T14:01:40.945Z,27.57
2018-05-07T14:03:35.540Z,27.46
2018-05-07T14:04:35.514Z,27.49
2018-05-07T14:06:28.478Z,27.57
2018-05-07T14:07:28.491Z,27.51
2018-05-07T14:09:21.523Z,27.57
2018-05-07T14:10:21.546Z,27.59
2018-05-07T14:12:14.590Z,27.47
2018-05-07T14:13:14.603Z,27.39
2018-05-07T14:15:07.628Z,27.44
2018-05-07T14:16:07.661Z,27.47
2018-05-07T14:18:00.704Z,27.32
2018-05-07T14:19:00.716Z,27.44
2018-05-07T14:20:53.741Z,27.55
2018-05-07T14:21:53.773Z,27.51
2018-05-07T14:23:48.251Z,27.66
2018-05-07T14:24:48.264Z,27.65
2018-05-07T14:26:41.305Z,27.65
2018-05-07T14:27:41.319Z,27.67
2018-05-07T14:29:34.372Z,27.77
2018-05-07T14:30:34.378Z,27.82
2018-05-07T14:32:27.418Z,27.78
2018-05-07T14:33:27.489Z,27.79
2018-05-07T14:35:20.456Z,27.70
2018-05-07T14:36:20.487Z,27.63
2018-05-07T14:38:13.531Z,27.39
2018-05-07T14:39:13.546Z,27.54
2018-05-07T14:41:06.567Z,27.66
2018-05-07T14:42:06.599Z,27.66
2018-05-07T14:43:59.651Z,27.62
2018-05-07T14:44:59.666Z,27.67
2018-05-07T14:46:52.704Z,27.66
2018-05-07T14:47:52.782Z,27.70
2018-05-07T14:49:45.736Z,27.63
2018-05-07T14:50:45.769Z,27.63
2018-05-07T14:52:38.863Z,27.65
2018-05-07T14:53:38.826Z,27.67
2018-05-07T14:55:31.849Z,27.63
2018-05-07T14:56:31.881Z,27.79
2018-05-07T14:58:24.925Z,27.99
2018-05-07T14:59:24.944Z,27.87
2018-05-07T15:01:17.969Z,27.93
2018-05-07T15:02:17.999Z,28.00
2018-05-07T15:04:11.040Z,28.02
2018-05-07T15:05:11.054Z,27.96
2018-05-07T15:07:04.005Z,27.94
2018-05-07T15:08:04.015Z,27.96
2018-05-07T15:09:56.945Z,27.92
2018-05-07T15:10:56.980Z,27.87
2018-05-07T15:12:49.929Z,27.78
2018-05-07T15:13:49.937Z,27.75
2018-05-07T15:15:42.934Z,27.63
2018-05-07T15:16:42.967Z,27.50
2018-05-07T15:18:36.015Z,27.32
2018-05-07T15:19:36.024Z,27.32
2018-05-07T15:21:29.561Z,27.41
2018-05-07T15:22:29.593Z,27.57
2018-05-07T15:24:22.640Z,27.66
2018-05-07T15:25:22.649Z,27.60
2018-05-07T15:27:15.691Z,27.59
2018-05-07T15:28:15.705Z,27.66
2018-05-07T15:30:09.138Z,27.66
2018-05-07T15:31:09.168Z,27.51
2018-05-07T15:33:02.422Z,27.29
2018-05-07T15:34:02.236Z,27.39
2018-05-07T15:35:55.251Z,27.37
2018-05-07T15:36:55.284Z,27.37
2018-05-07T15:38:48.324Z,27.22
2018-05-07T15:39:48.339Z,27.22
2018-05-07T15:41:41.365Z,27.13
2018-05-07T15:42:41.395Z,27.03
2018-05-07T15:44:34.851Z,26.87
2018-05-07T15:45:34.862Z,26.76
2018-05-07T15:47:27.908Z,26.60
2018-05-07T15:48:27.917Z,26.73
2018-05-07T15:50:20.944Z,26.75
2018-05-07T15:51:20.975Z,26.88
2018-05-07T15:53:14.015Z,26.92
2018-05-07T15:54:14.029Z,26.88
2018-05-07T15:56:06.958Z,26.77
2018-05-07T15:57:06.996Z,26.69
2018-05-07T15:59:00.032Z,26.99
2018-05-07T16:00:00.073Z,27.10
2018-05-07T16:01:53.063Z,27.14
2018-05-07T16:02:53.190Z,27.25
2018-05-07T16:04:46.046Z,27.40
2018-05-07T16:05:46.057Z,27.32
2018-05-07T16:07:39.097Z,27.32
2018-05-07T16:08:39.107Z,27.32
2018-05-07T16:10:32.132Z,27.44
2018-05-07T16:11:32.163Z,27.49
2018-05-07T16:13:25.212Z,27.37
2018-05-07T16:14:25.221Z,27.43
2018-05-07T16:16:18.242Z,27.34
2018-05-07T16:17:18.298Z,27.47
2018-05-07T16:19:11.329Z,27.40
2018-05-07T16:20:11.333Z,27.34
2018-05-07T16:22:04.461Z,27.24
2018-05-07T16:23:04.388Z,27.18
2018-05-07T16:24:57.434Z,27.41
2018-05-07T16:25:57.443Z,27.34
2018-05-07T16:27:50.490Z,27.29
2018-05-07T16:28:50.512Z,27.34
2018-05-07T16:30:43.528Z,27.29
2018-05-07T16:31:43.560Z,27.24
2018-05-07T16:33:36.601Z,27.31
2018-05-07T16:34:36.619Z,27.32
2018-05-07T16:36:29.637Z,27.25
2018-05-07T16:37:29.676Z,27.07
2018-05-07T16:39:22.713Z,26.94
2018-05-07T16:40:22.727Z,26.80
2018-05-07T16:42:15.750Z,26.85
2018-05-07T16:43:15.783Z,26.85
2018-05-07T16:45:09.756Z,26.92
2018-05-07T16:46:09.769Z,26.88
2018-05-07T16:48:02.802Z,26.77
2018-05-07T16:49:02.912Z,26.73
2018-05-07T16:50:55.843Z,26.81
2018-05-07T16:51:55.875Z,26.85
2018-05-07T16:53:48.915Z,26.82
2018-05-07T16:54:48.928Z,26.85
2018-05-07T16:56:41.957Z,26.73
2018-05-07T16:57:41.988Z,26.62
2018-05-07T16:59:35.030Z,26.48
2018-05-07T17:00:35.043Z,26.37
2018-05-07T17:02:28.065Z,26.45
2018-05-07T17:03:28.099Z,26.39
2018-05-07T17:05:21.144Z,26.43
2018-05-07T17:06:21.155Z,26.48
2018-05-07T17:08:14.207Z,26.32
2018-05-07T17:09:14.208Z,26.21
2018-05-07T17:11:07.239Z,26.36
2018-05-07T17:12:07.266Z,26.51
2018-05-07T17:14:00.720Z,26.51
2018-05-07T17:15:00.733Z,26.37
2018-05-07T17:16:53.756Z,26.25
2018-05-07T17:17:53.787Z,26.21
2018-05-07T17:19:46.831Z,26.21
2018-05-07T17:20:46.842Z,26.23
2018-05-07T17:22:41.301Z,26.07
2018-05-07T17:23:41.333Z,26.20
2018-05-07T17:25:34.378Z,26.12
2018-05-07T17:26:34.391Z,26.05
2018-05-07T17:28:27.435Z,26.07
2018-05-07T17:29:27.449Z,25.99
2018-05-07T17:31:20.470Z,26.06
2018-05-07T17:32:20.503Z,26.09
2018-05-07T17:34:13.548Z,25.91
2018-05-07T17:35:13.561Z,25.87
2018-05-07T17:37:06.607Z,25.79
2018-05-07T17:38:06.620Z,25.79
2018-05-07T17:39:59.659Z,25.75
2018-05-07T17:40:59.673Z,25.70
2018-05-07T17:42:52.755Z,25.69
2018-05-07T17:43:52.810Z,25.65
2018-05-07T17:45:45.776Z,25.67
2018-05-07T17:46:45.783Z,25.69
2018-05-07T17:48:38.826Z,25.67
2018-05-07T17:49:38.839Z,25.64
2018-05-07T17:51:32.282Z,25.60
2018-05-07T17:52:32.325Z,25.58
2018-05-07T17:54:25.788Z,25.57
2018-05-07T17:55:25.772Z,25.45
2018-05-07T17:57:18.796Z,25.50
2018-05-07T17:58:18.825Z,25.57
2018-05-07T18:00:11.872Z,25.76
2018-05-07T18:01:11.883Z,25.92
2018-05-07T18:03:04.911Z,26.23
2018-05-07T18:04:04.939Z,26.48
2018-05-07T18:05:58.500Z,26.50
2018-05-07T18:06:58.514Z,26.63
2018-05-07T18:08:51.552Z,26.66
2018-05-07T18:09:51.566Z,26.66
2018-05-07T18:11:44.592Z,26.66
2018-05-07T18:12:44.622Z,26.62
2018-05-07T18:14:40.132Z,26.36
2018-05-07T18:15:40.145Z,26.33
2018-05-07T18:17:33.162Z,26.25
2018-05-07T18:18:33.189Z,26.23
2018-05-07T18:20:26.233Z,26.23
2018-05-07T18:21:26.288Z,26.28
2018-05-07T18:23:20.708Z,26.35
2018-05-07T18:24:20.736Z,26.45
2018-05-07T18:26:13.783Z,26.44
2018-05-07T18:27:13.796Z,26.39
2018-05-07T18:29:06.836Z,26.10
2018-05-07T18:30:06.849Z,26.06
2018-05-07T18:31:59.877Z,25.69
2018-05-07T18:32:59.907Z,25.50
2018-05-07T18:34:52.954Z,25.35